Time;durP1;ratioP1;P1;durP2;ratioP2;P2;SDS_P1;SDS_P2;PMS_P1;PMS_P2;Temp;Humidity;BMP_temperature;BMP_pressure;BME280_temperature;BME280_humidity;BME280_pressure;Samples;Min_cycle;Max_cycle;Signal;HPM_P1;HPM_P2
2021/11/22 00:01:18;;;;;;;11.17;5.93;;;3.10;99.90;;;;;;4127334;28;21120;-58
2021/11/22 00:03:20;;;;;;;11.70;5.10;;;3.00;99.90;;;;;;4126009;28;20431;-56
2021/11/22 00:05:21;;;;;;;10.97;5.53;;;3.10;99.90;;;;;;4127268;28;20334;-57
2021/11/22 00:07:23;;;;;;;11.93;6.33;;;3.10;99.90;;;;;;4126120;28;20346;-55
2021/11/22 00:09:25;;;;;;;13.20;5.30;;;3.10;99.90;;;;;;4127522;28;20318;-64
2021/11/22 00:11:27;;;;;;;11.97;5.20;;;3.10;99.90;;;;;;4125382;28;20283;-63
2021/11/22 00:13:28;;;;;;;11.77;5.43;;;3.10;99.90;;;;;;4126379;28;20292;-54
2021/11/22 00:15:29;;;;;;;10.67;4.97;;;3.10;99.90;;;;;;4109344;28;20296;-59
2021/11/22 00:17:31;;;;;;;9.70;4.70;;;3.10;99.90;;;;;;4110838;28;20328;-57
2021/11/22 00:19:34;;;;;;;9.47;5.00;;;3.10;99.90;;;;;;4110070;28;20276;-58
2021/11/22 00:21:35;;;;;;;12.47;5.53;;;3.10;99.90;;;;;;4111260;28;20269;-67
2021/11/22 00:23:36;;;;;;;12.33;6.20;;;3.10;99.90;;;;;;4108761;28;20300;-60
2021/11/22 00:25:37;;;;;;;13.13;6.47;;;3.00;99.90;;;;;;4110668;28;20273;-61
2021/11/22 00:27:38;;;;;;;16.47;7.63;;;3.00;99.90;;;;;;4118666;28;21196;-57
2021/11/22 00:29:40;;;;;;;15.00;6.83;;;3.00;99.90;;;;;;4125654;28;20288;-56
2021/11/22 00:31:44;;;;;;;15.43;7.93;;;3.00;99.90;;;;;;4125605;28;20276;-55
2021/11/22 00:33:47;;;;;;;17.43;8.50;;;3.00;99.90;;;;;;4126138;28;20276;-59
2021/11/22 00:35:49;;;;;;;13.10;6.10;;;3.10;99.90;;;;;;4126662;28;20315;-55
2021/11/22 00:37:51;;;;;;;11.50;6.27;;;3.00;99.90;;;;;;4125552;28;20264;-60
2021/11/22 00:39:53;;;;;;;9.23;4.90;;;3.00;99.90;;;;;;4126613;28;20609;-58
2021/11/22 00:41:54;;;;;;;9.47;4.83;;;3.00;99.90;;;;;;4125637;28;20271;-59
2021/11/22 00:43:55;;;;;;;11.03;5.23;;;3.00;99.90;;;;;;4126209;28;20272;-58
2021/11/22 00:45:56;;;;;;;10.80;5.33;;;3.00;99.90;;;;;;4125553;28;20268;-57
2021/11/22 00:47:59;;;;;;;7.63;4.03;;;3.00;99.90;;;;;;4126531;28;20292;-57
2021/11/22 00:50:00;;;;;;;9.00;4.77;;;3.00;99.90;;;;;;4124466;28;20335;-61
2021/11/22 00:52:03;;;;;;;8.63;4.67;;;3.00;99.90;;;;;;4127072;28;20594;-60
2021/11/22 00:54:04;;;;;;;10.07;5.27;;;3.00;99.90;;;;;;4125527;28;20671;-63
2021/11/22 00:56:05;;;;;;;9.93;4.70;;;3.00;99.90;;;;;;4124292;28;20263;-57
2021/11/22 00:58:06;;;;;;;9.77;5.30;;;3.10;99.90;;;;;;4125776;28;20322;-59
2021/11/22 01:00:11;;;;;;;11.60;5.37;;;3.10;99.90;;;;;;4126425;28;20268;-59
2021/11/22 01:02:12;;;;;;;11.37;5.33;;;3.20;99.90;;;;;;4126524;28;20331;-54
2021/11/22 01:04:13;;;;;;;11.73;5.63;;;3.20;99.90;;;;;;4124614;28;20269;-61
2021/11/22 01:06:14;;;;;;;11.27;5.60;;;3.10;99.90;;;;;;4126179;28;20704;-65
2021/11/22 01:08:16;;;;;;;10.67;6.10;;;3.20;99.90;;;;;;4125213;28;20304;-63
2021/11/22 01:10:18;;;;;;;13.07;5.67;;;3.10;99.90;;;;;;4126140;28;20323;-63
2021/11/22 01:12:19;;;;;;;11.67;5.63;;;3.10;99.90;;;;;;4124549;28;20264;-63
2021/11/22 01:14:20;;;;;;;10.50;6.40;;;3.10;99.90;;;;;;4126311;28;20737;-64
2021/11/22 01:16:22;;;;;;;13.53;7.33;;;3.10;99.90;;;;;;4124728;28;20268;-57
2021/11/22 01:18:23;;;;;;;10.80;5.73;;;3.10;99.90;;;;;;4128008;28;20280;-65
2021/11/22 01:20:29;;;;;;;11.17;6.23;;;3.10;99.90;;;;;;4127466;28;20268;-63
2021/11/22 01:22:30;;;;;;;14.33;6.83;;;3.10;99.90;;;;;;4127002;28;20346;-61
2021/11/22 01:24:31;;;;;;;13.90;6.43;;;3.10;99.90;;;;;;4125022;28;20351;-61
2021/11/22 01:26:33;;;;;;;12.80;6.30;;;3.10;99.90;;;;;;4126543;28;20264;-58
2021/11/22 01:28:34;;;;;;;11.77;5.60;;;3.10;99.90;;;;;;4125278;28;20894;-61
2021/11/22 01:30:35;;;;;;;11.73;6.93;;;3.10;99.90;;;;;;4124983;28;20323;-61
2021/11/22 01:32:38;;;;;;;10.83;5.97;;;3.10;99.90;;;;;;4125384;28;20248;-58
2021/11/22 01:34:39;;;;;;;16.23;6.77;;;3.10;99.90;;;;;;4124302;28;20338;-58
2021/11/22 01:36:40;;;;;;;12.60;6.27;;;3.10;99.90;;;;;;4125528;28;20276;-58
2021/11/22 01:38:42;;;;;;;12.77;6.13;;;3.10;99.90;;;;;;4124882;28;20272;-62
2021/11/22 01:40:46;;;;;;;12.20;5.93;;;3.10;99.90;;;;;;4125513;28;20334;-59
2021/11/22 01:42:47;;;;;;;14.70;6.37;;;3.10;99.90;;;;;;4124258;28;20276;-61
2021/11/22 01:44:48;;;;;;;13.20;6.10;;;3.20;99.90;;;;;;4125728;28;20260;-60
2021/11/22 01:46:50;;;;;;;14.67;6.60;;;3.20;99.90;;;;;;4123797;28;20335;-62
2021/11/22 01:48:53;;;;;;;13.17;6.93;;;3.20;99.90;;;;;;4125653;28;20346;-58
2021/11/22 01:50:54;;;;;;;13.57;5.80;;;3.20;99.90;;;;;;4121413;28;20281;-59
2021/11/22 01:52:56;;;;;;;12.27;6.17;;;3.20;99.90;;;;;;4110139;28;20351;-59
2021/11/22 01:54:57;;;;;;;12.37;5.93;;;3.20;99.90;;;;;;4108646;28;21059;-61
2021/11/22 01:56:59;;;;;;;16.43;6.53;;;3.20;99.90;;;;;;4109776;28;20265;-58
2021/11/22 01:59:00;;;;;;;13.33;6.77;;;3.20;99.90;;;;;;4108833;28;20273;-62
2021/11/22 02:01:01;;;;;;;11.27;5.83;;;3.30;99.90;;;;;;4109253;28;20268;-56
2021/11/22 02:03:04;;;;;;;16.03;7.47;;;3.30;99.90;;;;;;4123677;28;20280;-60
2021/11/22 02:05:06;;;;;;;12.13;6.47;;;3.20;99.90;;;;;;4124333;28;20335;-58
2021/11/22 02:07:07;;;;;;;15.97;7.60;;;3.20;99.90;;;;;;4124824;28;20256;-58
2021/11/22 02:09:09;;;;;;;13.87;6.30;;;3.20;99.90;;;;;;4124197;28;20312;-55
2021/11/22 02:11:12;;;;;;;14.20;7.13;;;3.20;99.90;;;;;;4124508;28;20303;-59
2021/11/22 02:13:15;;;;;;;14.17;6.70;;;3.20;99.90;;;;;;4124394;28;20260;-58
2021/11/22 02:15:17;;;;;;;12.40;6.80;;;3.20;99.90;;;;;;4124950;28;20264;-63
2021/11/22 02:17:18;;;;;;;12.00;6.13;;;3.20;99.90;;;;;;4124505;28;20260;-65
2021/11/22 02:19:19;;;;;;;12.50;6.73;;;3.20;99.90;;;;;;4124966;28;20327;-61
2021/11/22 02:21:20;;;;;;;14.73;6.37;;;3.20;99.90;;;;;;4123439;28;20292;-55
2021/11/22 02:23:22;;;;;;;15.17;7.70;;;3.20;99.90;;;;;;4125478;28;20299;-57
2021/11/22 02:25:26;;;;;;;19.67;9.70;;;3.20;99.90;;;;;;4124075;28;21233;-62
2021/11/22 02:27:28;;;;;;;16.53;8.53;;;3.30;99.90;;;;;;4124918;28;20331;-58
2021/11/22 02:29:29;;;;;;;15.97;7.80;;;3.20;99.90;;;;;;4124247;28;20268;-60
2021/11/22 02:31:30;;;;;;;17.20;8.00;;;3.20;99.90;;;;;;4124913;28;20276;-60
2021/11/22 02:33:32;;;;;;;15.83;7.90;;;3.20;99.90;;;;;;4123939;28;20753;-57
2021/11/22 02:35:39;;;;;;;18.90;8.70;;;3.30;99.90;;;;;;4124575;28;20298;-60
2021/11/22 02:37:40;;;;;;;18.83;8.93;;;3.30;99.90;;;;;;4124028;28;20276;-56
2021/11/22 02:39:41;;;;;;;22.23;9.20;;;3.30;99.90;;;;;;4124843;28;20873;-58
2021/11/22 02:41:43;;;;;;;18.80;8.10;;;3.30;99.90;;;;;;4124691;28;20743;-61
2021/11/22 02:43:45;;;;;;;15.00;7.20;;;3.30;99.90;;;;;;4123874;28;20272;-60
2021/11/22 02:45:47;;;;;;;16.87;8.37;;;3.20;99.90;;;;;;4124557;28;20276;-56
2021/11/22 02:47:50;;;;;;;16.03;7.37;;;3.20;99.90;;;;;;4123790;28;20304;-58
2021/11/22 02:49:51;;;;;;;10.50;5.37;;;3.20;99.90;;;;;;4124956;28;20276;-56
2021/11/22 02:51:52;;;;;;;8.83;4.67;;;3.10;99.90;;;;;;4124300;28;20268;-58
2021/11/22 02:54:04;;;;;;;7.23;4.23;;;3.10;99.90;;;;;;4124459;28;20264;-58
2021/11/22 02:56:07;;;;;;;7.37;4.20;;;3.10;99.90;;;;;;4123393;28;20334;-57
2021/11/22 02:58:08;;;;;;;7.97;4.23;;;3.10;99.90;;;;;;4124626;28;20331;-56
2021/11/22 03:00:14;;;;;;;8.63;5.00;;;3.10;99.90;;;;;;4122907;28;20269;-58
2021/11/22 03:02:15;;;;;;;9.30;4.77;;;3.10;99.90;;;;;;4107720;28;20272;-59
2021/11/22 03:04:16;;;;;;;8.03;4.53;;;3.10;99.90;;;;;;4108028;28;20685;-62
2021/11/22 03:06:18;;;;;;;8.10;4.47;;;3.10;99.90;;;;;;4109202;28;20331;-57
2021/11/22 03:08:19;;;;;;;7.37;4.10;;;3.10;99.90;;;;;;4107643;28;20288;-55
2021/11/22 03:10:22;;;;;;;7.37;4.27;;;3.10;99.90;;;;;;4111818;28;20312;-62
2021/11/22 03:12:23;;;;;;;10.83;4.87;;;3.10;99.90;;;;;;4123899;28;20264;-59
2021/11/22 03:14:26;;;;;;;7.73;4.53;;;3.10;99.90;;;;;;4124265;28;20326;-54
2021/11/22 03:16:30;;;;;;;8.90;4.20;;;3.10;99.90;;;;;;4123810;28;20315;-60
2021/11/22 03:18:32;;;;;;;10.13;5.27;;;3.10;99.90;;;;;;4123719;28;20318;-63
2021/11/22 03:20:33;;;;;;;8.60;4.70;;;3.10;99.90;;;;;;4124166;28;20429;-62
2021/11/22 03:22:34;;;;;;;9.10;4.70;;;3.10;99.90;;;;;;4123654;28;20271;-57
2021/11/22 03:24:36;;;;;;;12.03;5.50;;;3.10;99.90;;;;;;4124609;28;20275;-55
2021/11/22 03:26:37;;;;;;;10.07;5.23;;;3.10;99.90;;;;;;4123259;28;20274;-61
2021/11/22 03:28:38;;;;;;;11.50;5.43;;;3.10;99.90;;;;;;4123735;28;20752;-66
2021/11/22 03:30:40;;;;;;;12.30;5.97;;;3.10;99.90;;;;;;4123578;28;20342;-63
2021/11/22 03:32:41;;;;;;;10.43;5.37;;;3.10;99.90;;;;;;4124827;28;20284;-59
2021/11/22 03:34:43;;;;;;;11.97;6.13;;;3.10;99.90;;;;;;4123322;28;20824;-57
2021/11/22 03:36:44;;;;;;;13.00;6.27;;;3.10;99.90;;;;;;4124502;28;20280;-59
2021/11/22 03:38:45;;;;;;;13.07;5.97;;;3.10;99.90;;;;;;4123635;28;20272;-63
2021/11/22 03:40:48;;;;;;;12.77;5.90;;;3.10;99.90;;;;;;4124309;28;20273;-60
2021/11/22 03:43:01;;;;;;;11.80;6.00;;;3.10;99.90;;;;;;4121923;28;20303;-57
2021/11/22 03:45:05;;;;;;;11.80;6.00;;;3.10;99.90;;;;;;4124699;28;20331;-68
2021/11/22 03:47:06;;;;;;;13.00;6.47;;;3.00;99.90;;;;;;4123435;28;20308;-56
2021/11/22 03:49:07;;;;;;;15.00;6.00;;;3.00;99.90;;;;;;4124280;28;21056;-58
2021/11/22 03:51:09;;;;;;;13.63;6.40;;;3.10;99.90;;;;;;4122446;28;20327;-55
2021/11/22 03:53:10;;;;;;;13.57;6.63;;;3.10;99.90;;;;;;4122841;28;20280;-57
2021/11/22 03:55:11;;;;;;;10.83;5.97;;;3.10;99.90;;;;;;4123685;28;20866;-64
2021/11/22 03:57:12;;;;;;;14.57;7.00;;;3.10;99.90;;;;;;4123208;28;20314;-58
2021/11/22 03:59:14;;;;;;;14.00;6.80;;;3.00;99.90;;;;;;4126544;28;20269;-59
2021/11/22 04:01:15;;;;;;;14.50;6.63;;;3.00;99.90;;;;;;4126195;28;20268;-57
2021/11/22 04:03:17;;;;;;;12.77;6.27;;;3.00;99.90;;;;;;4127260;28;20350;-59
2021/11/22 04:05:18;;;;;;;15.30;6.67;;;3.00;99.90;;;;;;4126526;28;20279;-66
2021/11/22 04:07:19;;;;;;;10.97;5.90;;;2.90;99.90;;;;;;4126773;28;20319;-60
2021/11/22 04:09:20;;;;;;;15.40;6.77;;;2.90;99.90;;;;;;4125637;28;20708;-57
2021/11/22 04:11:22;;;;;;;15.07;6.90;;;2.90;99.90;;;;;;4127717;28;20279;-57
2021/11/22 04:13:23;;;;;;;13.60;6.70;;;2.90;99.90;;;;;;4125886;28;20339;-61
2021/11/22 04:15:24;;;;;;;15.63;6.90;;;2.90;99.90;;;;;;4127098;28;20327;-59
2021/11/22 04:17:26;;;;;;;15.40;7.30;;;2.80;99.90;;;;;;4125367;28;20672;-62
2021/11/22 04:19:27;;;;;;;15.33;7.13;;;2.80;99.90;;;;;;4126790;28;20399;-65
2021/11/22 04:21:28;;;;;;;14.40;7.07;;;2.80;99.90;;;;;;4126038;28;20260;-59
2021/11/22 04:23:31;;;;;;;15.53;6.50;;;2.80;99.90;;;;;;4126223;28;20316;-61
2021/11/22 04:25:33;;;;;;;13.97;7.43;;;2.80;99.90;;;;;;4126189;28;20248;-53
2021/11/22 04:27:35;;;;;;;15.07;6.63;;;2.90;99.90;;;;;;4125906;28;20302;-58
2021/11/22 04:29:37;;;;;;;16.60;6.83;;;2.90;99.90;;;;;;4126553;28;20347;-60
2021/11/22 04:31:38;;;;;;;16.27;7.23;;;2.90;99.90;;;;;;4125127;28;20347;-55
2021/11/22 04:33:40;;;;;;;15.33;6.57;;;2.90;99.90;;;;;;4126464;28;20330;-57
2021/11/22 04:35:41;;;;;;;12.73;6.30;;;2.90;99.90;;;;;;4125288;28;20782;-62
2021/11/22 04:37:43;;;;;;;12.33;6.00;;;2.90;99.90;;;;;;4125527;28;20728;-58
2021/11/22 04:39:44;;;;;;;9.37;5.97;;;3.00;99.90;;;;;;4124872;28;20272;-65
2021/11/22 04:41:47;;;;;;;13.60;5.90;;;3.00;99.90;;;;;;4126844;28;20326;-58
2021/11/22 04:43:48;;;;;;;10.80;5.50;;;3.00;99.90;;;;;;4125151;28;20264;-64
2021/11/22 04:45:49;;;;;;;12.00;5.70;;;3.00;99.90;;;;;;4125616;28;20287;-54
2021/11/22 04:47:51;;;;;;;10.03;5.00;;;3.10;99.90;;;;;;4125008;28;21257;-59
2021/11/22 04:49:53;;;;;;;11.43;5.57;;;3.10;99.90;;;;;;4126220;28;20354;-55
2021/11/22 04:51:54;;;;;;;11.43;6.13;;;3.10;99.90;;;;;;4125980;28;20307;-58
2021/11/22 04:53:55;;;;;;;8.30;4.93;;;3.10;99.90;;;;;;4126485;28;20671;-60
2021/11/22 04:55:57;;;;;;;11.50;5.33;;;3.10;99.90;;;;;;4125540;28;20330;-58
2021/11/22 04:57:58;;;;;;;10.70;5.43;;;3.10;99.90;;;;;;4125164;28;20335;-59
2021/11/22 05:00:00;;;;;;;9.83;5.00;;;3.10;99.90;;;;;;4125376;28;20342;-58
2021/11/22 05:02:01;;;;;;;11.30;5.73;;;3.00;99.90;;;;;;4124480;28;20284;-62
2021/11/22 05:04:02;;;;;;;11.93;6.50;;;3.00;99.90;;;;;;4126558;28;20273;-55
2021/11/22 05:06:03;;;;;;;11.73;6.10;;;3.10;99.90;;;;;;4122017;28;20864;-65
2021/11/22 05:08:06;;;;;;;11.23;6.30;;;3.00;99.90;;;;;;4116320;28;20285;-64
2021/11/22 05:10:08;;;;;;;13.27;5.83;;;3.00;99.90;;;;;;4111129;28;20330;-58
2021/11/22 05:12:09;;;;;;;13.07;6.43;;;3.00;99.90;;;;;;4113301;28;20312;-61
2021/11/22 05:14:11;;;;;;;14.60;7.27;;;3.00;99.90;;;;;;4118083;28;21053;-62
2021/11/22 05:16:12;;;;;;;14.20;6.83;;;3.00;99.90;;;;;;4120713;28;20284;-62
2021/11/22 05:18:13;;;;;;;10.07;5.60;;;3.00;99.90;;;;;;4118456;28;20855;-61
2021/11/22 05:20:15;;;;;;;12.83;6.47;;;2.90;99.90;;;;;;4120395;28;20334;-65
2021/11/22 05:22:21;;;;;;;11.80;6.00;;;2.90;99.90;;;;;;4123078;28;20280;-59
2021/11/22 05:24:22;;;;;;;10.17;5.33;;;2.90;99.90;;;;;;4124798;28;20295;-63
2021/11/22 05:26:23;;;;;;;10.07;5.63;;;2.90;99.90;;;;;;4119659;28;20272;-65
2021/11/22 05:28:27;;;;;;;11.43;5.97;;;2.90;99.90;;;;;;4119605;28;20345;-59
2021/11/22 05:30:28;;;;;;;14.53;6.27;;;2.90;99.90;;;;;;4120020;28;20276;-62
2021/11/22 05:32:29;;;;;;;13.67;6.37;;;2.90;99.90;;;;;;4119736;28;20834;-60
2021/11/22 05:34:30;;;;;;;13.67;6.23;;;2.80;99.90;;;;;;4120564;28;20272;-61
2021/11/22 05:36:35;;;;;;;11.73;6.37;;;2.80;99.90;;;;;;4121117;28;20272;-58
2021/11/22 05:38:36;;;;;;;13.73;6.50;;;2.90;99.90;;;;;;4118282;28;20342;-60
2021/11/22 05:40:37;;;;;;;13.60;6.10;;;2.90;99.90;;;;;;4119261;28;20681;-56
2021/11/22 05:42:38;;;;;;;10.80;5.70;;;2.90;99.90;;;;;;4123734;28;20288;-59
2021/11/22 05:44:40;;;;;;;12.90;5.90;;;2.90;99.90;;;;;;4123089;28;20346;-54
2021/11/22 05:46:41;;;;;;;12.43;5.73;;;2.90;99.90;;;;;;4125219;28;21080;-62
2021/11/22 05:48:42;;;;;;;12.80;6.17;;;2.90;99.90;;;;;;4123700;28;20358;-66
2021/11/22 05:50:45;;;;;;;10.10;5.93;;;2.80;99.90;;;;;;4124927;28;20280;-59
2021/11/22 05:52:52;;;;;;;13.33;5.90;;;2.80;99.90;;;;;;4124274;28;20280;-58
2021/11/22 05:54:55;;;;;;;12.03;5.80;;;2.90;99.90;;;;;;4124401;28;20339;-57
2021/11/22 05:56:57;;;;;;;12.40;5.83;;;2.90;99.90;;;;;;4121510;28;20346;-59
2021/11/22 05:58:58;;;;;;;13.47;7.17;;;2.90;99.90;;;;;;4124253;28;20312;-66
2021/11/22 06:01:01;;;;;;;13.73;6.60;;;2.80;99.90;;;;;;4124101;28;20610;-58
2021/11/22 06:03:03;;;;;;;13.20;5.37;;;2.90;99.90;;;;;;4124283;28;20310;-64
2021/11/22 06:05:05;;;;;;;11.90;5.90;;;2.90;99.90;;;;;;4123839;28;20263;-60
2021/11/22 06:07:06;;;;;;;8.10;4.50;;;2.80;99.90;;;;;;4123851;28;20283;-64
2021/11/22 06:09:07;;;;;;;9.73;4.73;;;2.90;99.90;;;;;;4124452;28;20365;-63
2021/11/22 06:11:08;;;;;;;9.20;5.07;;;2.80;99.90;;;;;;4123575;28;20399;-57
2021/11/22 06:13:12;;;;;;;11.33;5.70;;;2.80;99.90;;;;;;4124532;28;20396;-58
2021/11/22 06:15:13;;;;;;;9.60;4.73;;;2.80;99.90;;;;;;4124043;28;20252;-59
2021/11/22 06:17:14;;;;;;;12.03;6.20;;;2.80;99.90;;;;;;4125228;28;20252;-60
2021/11/22 06:19:16;;;;;;;10.20;4.77;;;2.80;99.90;;;;;;4122983;28;20260;-61
2021/11/22 06:21:17;;;;;;;10.67;4.73;;;2.80;99.90;;;;;;4124466;28;20268;-59
2021/11/22 06:23:18;;;;;;;9.90;4.50;;;2.80;99.90;;;;;;4123111;28;20815;-60
2021/11/22 06:25:20;;;;;;;9.87;5.10;;;2.80;99.90;;;;;;4125290;28;20326;-65
2021/11/22 06:27:21;;;;;;;17.63;6.63;;;2.80;99.90;;;;;;4123740;28;20264;-60
2021/11/22 06:29:23;;;;;;;26.47;8.07;;;2.80;99.90;;;;;;4124745;28;20288;-62
2021/11/22 06:31:24;;;;;;;19.20;7.13;;;2.80;99.90;;;;;;4124137;28;20272;-59
2021/11/22 06:33:25;;;;;;;13.53;6.30;;;2.90;99.90;;;;;;4123226;28;20267;-62
2021/11/22 06:35:27;;;;;;;14.77;6.47;;;2.90;99.90;;;;;;4123351;28;20835;-59
2021/11/22 06:37:31;;;;;;;11.17;5.17;;;2.90;99.90;;;;;;4123852;28;20345;-61
2021/11/22 06:39:33;;;;;;;12.50;5.53;;;2.90;99.90;;;;;;4124197;28;20295;-67
2021/11/22 06:41:34;;;;;;;11.57;6.10;;;2.90;99.90;;;;;;4122961;28;20732;-59
2021/11/22 06:43:35;;;;;;;10.30;5.23;;;3.00;99.90;;;;;;4124659;28;20669;-56
2021/11/22 06:45:36;;;;;;;10.50;4.93;;;3.00;99.90;;;;;;4123614;28;20294;-59
2021/11/22 06:47:37;;;;;;;9.60;5.20;;;3.10;99.90;;;;;;4124640;28;20704;-62
2021/11/22 06:49:38;;;;;;;9.87;5.27;;;3.00;99.90;;;;;;4122866;28;20869;-58
2021/11/22 06:51:39;;;;;;;13.63;6.40;;;3.10;99.90;;;;;;4124872;28;20268;-69
2021/11/22 06:53:41;;;;;;;12.30;5.73;;;3.00;99.90;;;;;;4122695;28;20319;-60
2021/11/22 06:55:42;;;;;;;10.80;5.33;;;3.00;99.90;;;;;;4123778;28;20315;-58
2021/11/22 06:57:43;;;;;;;12.07;5.80;;;3.00;99.90;;;;;;4123107;28;20323;-60
2021/11/22 06:59:44;;;;;;;10.30;4.60;;;3.00;99.90;;;;;;4124227;28;20311;-61
2021/11/22 07:01:45;;;;;;;7.80;4.43;;;2.90;99.90;;;;;;4123664;28;20244;-55
2021/11/22 07:03:47;;;;;;;11.97;5.20;;;2.90;99.90;;;;;;4123759;28;20272;-63
2021/11/22 07:05:48;;;;;;;10.50;4.90;;;2.90;99.90;;;;;;4123585;28;20267;-59
2021/11/22 07:07:50;;;;;;;11.13;5.30;;;2.90;99.90;;;;;;4123320;28;20294;-60
2021/11/22 07:09:52;;;;;;;8.53;4.43;;;3.00;99.90;;;;;;4124182;28;20740;-58
2021/11/22 07:11:53;;;;;;;10.70;5.20;;;2.90;99.90;;;;;;4123922;28;20331;-64
2021/11/22 07:13:55;;;;;;;8.23;4.40;;;3.00;99.90;;;;;;4123235;28;20346;-62
2021/11/22 07:15:57;;;;;;;9.03;4.83;;;3.00;99.90;;;;;;4123093;28;20263;-59
2021/11/22 07:17:58;;;;;;;11.13;5.37;;;3.00;99.90;;;;;;4124584;28;20275;-59
2021/11/22 07:20:00;;;;;;;8.50;4.57;;;3.00;99.90;;;;;;4123033;28;20256;-62
2021/11/22 07:22:05;;;;;;;8.37;4.10;;;2.90;99.90;;;;;;4124221;28;20747;-61
2021/11/22 07:24:07;;;;;;;10.20;4.53;;;2.90;99.90;;;;;;4122402;28;20284;-60
2021/11/22 07:26:09;;;;;;;10.00;4.30;;;2.90;99.90;;;;;;4124022;28;20283;-62
2021/11/22 07:28:10;;;;;;;9.63;5.00;;;2.90;99.90;;;;;;4122828;28;20310;-66
2021/11/22 07:30:17;;;;;;;7.83;4.60;;;2.80;99.90;;;;;;4123999;28;20323;-61
2021/11/22 07:32:18;;;;;;;9.77;4.60;;;2.80;99.90;;;;;;4123119;28;20276;-61
2021/11/22 07:34:19;;;;;;;9.40;4.60;;;2.80;99.90;;;;;;4125241;28;20284;-59
2021/11/22 07:36:21;;;;;;;9.57;5.13;;;2.80;99.90;;;;;;4126296;28;20322;-67
2021/11/22 07:38:22;;;;;;;10.00;4.57;;;2.80;99.90;;;;;;4125954;28;20391;-61
2021/11/22 07:40:24;;;;;;;9.03;4.17;;;2.80;99.90;;;;;;4126035;28;20260;-61
2021/11/22 07:42:25;;;;;;;10.03;4.63;;;2.80;99.90;;;;;;4126252;28;20322;-59
2021/11/22 07:44:26;;;;;;;8.97;4.63;;;2.80;99.90;;;;;;4127118;28;20319;-59
2021/11/22 07:46:28;;;;;;;6.40;3.33;;;2.80;99.90;;;;;;4125549;28;20272;-60
2021/11/22 07:48:29;;;;;;;8.30;4.00;;;2.80;99.90;;;;;;4127618;28;20327;-65
2021/11/22 07:50:30;;;;;;;6.57;3.73;;;2.70;99.90;;;;;;4125967;28;20342;-58
2021/11/22 07:52:32;;;;;;;5.27;3.50;;;2.70;99.90;;;;;;4126769;28;20264;-63
2021/11/22 07:54:33;;;;;;;6.47;4.10;;;2.70;99.90;;;;;;4126602;28;20307;-63
2021/11/22 07:56:34;;;;;;;5.90;3.37;;;2.70;99.90;;;;;;4127515;28;20279;-62
2021/11/22 07:58:35;;;;;;;5.97;3.27;;;2.70;99.90;;;;;;4125157;28;20283;-63
2021/11/22 08:00:37;;;;;;;7.67;4.00;;;2.70;99.90;;;;;;4125188;28;20288;-62
2021/11/22 08:02:38;;;;;;;5.20;3.33;;;2.80;99.90;;;;;;4125371;28;20280;-57
2021/11/22 08:04:39;;;;;;;5.63;2.97;;;2.80;99.90;;;;;;4127284;28;20279;-61
2021/11/22 08:06:51;;;;;;;5.93;3.27;;;2.80;99.90;;;;;;4125999;28;20260;-62
2021/11/22 08:08:52;;;;;;;5.70;3.23;;;2.90;99.90;;;;;;4126241;28;20280;-64
2021/11/22 08:13:13;;;;;;;6.93;3.90;;;3.10;99.90;;;;;;4126590;28;20794;-59
2021/11/22 08:15:14;;;;;;;7.17;3.77;;;3.10;99.90;;;;;;4126184;28;20264;-64
2021/11/22 08:17:15;;;;;;;5.37;2.60;;;3.20;99.90;;;;;;4126605;28;20327;-60
2021/11/22 08:19:16;;;;;;;4.90;2.87;;;3.10;99.90;;;;;;4125425;28;20284;-59
2021/11/22 08:21:17;;;;;;;5.43;3.20;;;3.20;99.90;;;;;;4125718;28;21067;-60
2021/11/22 08:23:19;;;;;;;7.20;3.47;;;3.20;99.90;;;;;;4126153;28;20338;-64
2021/11/22 08:25:23;;;;;;;4.73;3.17;;;3.30;99.90;;;;;;4124796;28;20364;-60
2021/11/22 08:27:29;;;;;;;7.30;3.47;;;3.30;99.90;;;;;;4126215;28;20347;-63
2021/11/22 08:29:31;;;;;;;6.67;3.27;;;3.40;99.90;;;;;;4125647;28;20358;-60
2021/11/22 08:31:32;;;;;;;6.80;3.40;;;3.40;99.90;;;;;;4126408;28;20311;-64
2021/11/22 08:33:33;;;;;;;6.00;3.13;;;3.40;99.90;;;;;;4125195;28;20846;-66
2021/11/22 08:35:34;;;;;;;7.17;3.77;;;3.50;99.90;;;;;;4126473;28;20280;-62
2021/11/22 08:37:37;;;;;;;5.57;3.00;;;3.50;99.90;;;;;;4124180;28;20571;-68
2021/11/22 08:39:38;;;;;;;7.37;3.90;;;3.50;99.90;;;;;;4126251;28;20260;-61
2021/11/22 08:41:40;;;;;;;6.53;3.57;;;3.60;99.90;;;;;;4125070;28;20372;-66
2021/11/22 08:43:41;;;;;;;5.43;3.50;;;3.70;99.90;;;;;;4125836;28;20272;-60
2021/11/22 08:45:46;;;;;;;8.43;3.93;;;3.80;99.90;;;;;;4124978;28;20300;-59
2021/11/22 08:47:48;;;;;;;7.23;3.40;;;3.80;99.90;;;;;;4126205;28;20829;-60
2021/11/22 08:49:49;;;;;;;10.20;4.43;;;3.80;99.90;;;;;;4125269;28;20296;-68
2021/11/22 08:51:51;;;;;;;8.00;3.93;;;3.80;99.90;;;;;;4124194;28;20327;-60
2021/11/22 08:53:53;;;;;;;8.50;3.83;;;3.80;99.90;;;;;;4125554;28;20319;-60
2021/11/22 08:55:54;;;;;;;12.17;4.80;;;3.80;99.90;;;;;;4125010;28;20259;-62
2021/11/22 08:57:56;;;;;;;9.47;4.47;;;3.80;99.90;;;;;;4126014;28;20264;-63
2021/11/22 08:59:57;;;;;;;9.70;4.00;;;3.90;99.90;;;;;;4125165;28;20280;-61
2021/11/22 09:01:58;;;;;;;8.67;5.00;;;3.90;99.90;;;;;;4126260;28;20264;-60
2021/11/22 09:03:59;;;;;;;7.37;4.27;;;3.90;99.90;;;;;;4124566;28;20334;-64
2021/11/22 09:06:01;;;;;;;9.50;5.20;;;3.90;99.90;;;;;;4125624;28;20331;-62
2021/11/22 09:08:02;;;;;;;11.07;5.33;;;3.90;99.90;;;;;;4124583;28;20310;-60
2021/11/22 09:10:04;;;;;;;8.03;4.40;;;3.90;99.90;;;;;;4125708;28;20296;-60
2021/11/22 09:12:06;;;;;;;7.47;4.70;;;3.90;99.90;;;;;;4124353;28;21041;-67
2021/11/22 09:14:07;;;;;;;8.20;4.80;;;3.90;99.90;;;;;;4126129;28;20319;-63
2021/11/22 09:16:09;;;;;;;9.73;5.23;;;4.00;99.90;;;;;;4124774;28;20300;-60
2021/11/22 09:18:11;;;;;;;7.43;4.73;;;4.00;99.90;;;;;;4125802;28;20668;-65
2021/11/22 09:20:12;;;;;;;12.87;6.00;;;4.00;99.90;;;;;;4125149;28;20306;-60
2021/11/22 09:22:13;;;;;;;12.00;5.80;;;4.10;99.90;;;;;;4124700;28;20366;-62
2021/11/22 09:24:15;;;;;;;9.43;5.53;;;4.10;99.90;;;;;;4124307;28;20268;-67
2021/11/22 09:26:17;;;;;;;8.57;4.93;;;4.10;99.90;;;;;;4122861;28;20298;-68
2021/11/22 09:28:19;;;;;;;10.33;6.00;;;4.20;99.90;;;;;;4125045;28;20279;-62
2021/11/22 09:30:20;;;;;;;8.10;5.00;;;4.20;99.90;;;;;;4124008;28;21183;-65
2021/11/22 09:32:21;;;;;;;9.70;4.77;;;4.20;99.90;;;;;;4125389;28;20664;-61
2021/11/22 09:34:22;;;;;;;10.40;5.47;;;4.20;99.90;;;;;;4123779;28;20356;-60
2021/11/22 09:36:23;;;;;;;11.20;6.10;;;4.20;99.90;;;;;;4125394;28;20322;-61
2021/11/22 09:38:25;;;;;;;12.30;5.80;;;4.20;99.90;;;;;;4123954;28;20268;-61
2021/11/22 09:40:26;;;;;;;10.50;5.07;;;4.20;99.90;;;;;;4124857;28;20272;-66
2021/11/22 09:42:27;;;;;;;14.30;6.70;;;4.30;99.90;;;;;;4123803;28;20732;-60
2021/11/22 09:44:28;;;;;;;13.20;6.50;;;4.30;99.90;;;;;;4125457;28;20256;-61
2021/11/22 09:46:30;;;;;;;9.37;5.83;;;4.30;99.90;;;;;;4124063;28;20322;-60
2021/11/22 09:48:31;;;;;;;13.50;6.43;;;4.40;99.90;;;;;;4125514;28;20658;-66
2021/11/22 09:50:33;;;;;;;13.63;6.77;;;4.30;99.90;;;;;;4123704;28;20300;-64
2021/11/22 09:52:35;;;;;;;14.17;7.17;;;4.30;99.90;;;;;;4125098;28;20315;-69
2021/11/22 09:54:36;;;;;;;12.77;6.47;;;4.30;99.90;;;;;;4124712;28;20260;-62
2021/11/22 09:56:38;;;;;;;15.50;8.07;;;4.40;99.90;;;;;;4123785;28;20288;-65
2021/11/22 09:58:39;;;;;;;14.67;7.27;;;4.30;99.90;;;;;;4123926;28;20294;-62
2021/11/22 10:00:40;;;;;;;15.03;7.03;;;4.30;99.90;;;;;;4123822;28;20264;-62
2021/11/22 10:02:51;;;;;;;15.97;8.17;;;4.30;99.90;;;;;;4125119;28;20326;-59
2021/11/22 10:04:52;;;;;;;18.13;8.73;;;4.20;99.90;;;;;;4123744;28;20318;-61
2021/11/22 10:06:56;;;;;;;15.53;7.73;;;4.20;99.90;;;;;;4124510;28;20272;-69
2021/11/22 10:08:57;;;;;;;14.90;7.13;;;4.20;99.90;;;;;;4122653;28;20374;-59
2021/11/22 10:11:00;;;;;;;18.47;8.03;;;4.20;99.90;;;;;;4125153;28;20295;-63
2021/11/22 10:13:33;;;;;;;25.57;9.27;;;4.20;99.90;;;;;;4123299;28;20434;-64
2021/11/22 10:15:34;;;;;;;20.07;8.50;;;4.20;99.90;;;;;;4125257;28;20310;-61
2021/11/22 10:17:39;;;;;;;15.67;7.93;;;4.20;99.90;;;;;;4122975;28;20710;-61
2021/11/22 10:19:40;;;;;;;20.63;9.97;;;4.30;99.90;;;;;;4125334;28;20330;-63
2021/11/22 10:21:41;;;;;;;14.70;7.40;;;4.40;99.90;;;;;;4123917;28;20798;-63
2021/11/22 10:23:45;;;;;;;17.00;7.93;;;4.40;99.90;;;;;;4124299;28;20354;-61
2021/11/22 10:25:47;;;;;;;15.23;8.20;;;4.40;99.90;;;;;;4123851;28;20280;-58
2021/11/22 10:27:49;;;;;;;18.57;8.13;;;4.40;99.90;;;;;;4124877;28;21188;-59
2021/11/22 10:29:50;;;;;;;15.80;8.53;;;4.40;99.90;;;;;;4123463;28;20351;-58
2021/11/22 10:32:00;;;;;;;16.03;8.07;;;4.40;99.90;;;;;;4123866;28;20339;-63
2021/11/22 10:34:02;;;;;;;17.67;7.90;;;4.40;99.90;;;;;;4123229;28;20272;-63
2021/11/22 10:36:06;;;;;;;17.60;8.67;;;4.50;99.90;;;;;;4124323;28;20411;-63
2021/11/22 10:38:07;;;;;;;14.43;8.40;;;4.50;99.90;;;;;;4123131;28;20268;-61
2021/11/22 10:40:16;;;;;;;18.63;8.60;;;4.40;99.90;;;;;;4124381;28;20271;-65